createdAt,value
2023-02-27T00:00:56.881Z,1.70
2023-02-27T00:03:26.858Z,1.97
2023-02-27T00:05:56.292Z,1.70
2023-02-27T00:08:25.281Z,1.57
2023-02-27T00:10:53.299Z,1.90
2023-02-27T00:13:21.380Z,1.87
2023-02-27T00:15:50.409Z,2.23
2023-02-27T00:18:19.121Z,1.70
2023-02-27T00:20:48.747Z,1.80
2023-02-27T00:23:16.835Z,1.53
2023-02-27T00:25:45.181Z,1.33
2023-02-27T00:28:13.442Z,1.40
2023-02-27T00:30:41.424Z,1.20
2023-02-27T00:33:09.421Z,1.40
2023-02-27T00:35:37.396Z,1.40
2023-02-27T00:38:06.858Z,2.03
2023-02-27T00:40:35.959Z,1.30
2023-02-27T00:43:03.937Z,1.20
2023-02-27T00:45:32.124Z,1.93
2023-02-27T00:48:00.196Z,1.70
2023-02-27T00:50:28.207Z,1.83
2023-02-27T00:52:56.165Z,1.33
2023-02-27T00:55:27.241Z,1.50
2023-02-27T00:57:55.484Z,1.57
2023-02-27T01:00:23.586Z,1.47
2023-02-27T01:02:51.640Z,1.67
2023-02-27T01:05:19.970Z,1.67
2023-02-27T01:07:48.011Z,2.17
2023-02-27T01:10:16.172Z,1.30
2023-02-27T01:12:45.511Z,1.80
2023-02-27T01:15:14.246Z,1.60
2023-02-27T01:17:42.289Z,1.40
2023-02-27T01:20:12.895Z,1.60
2023-02-27T01:22:41.042Z,1.33
2023-02-27T01:25:10.346Z,1.37
2023-02-27T01:27:38.453Z,1.80
2023-02-27T01:30:10.674Z,1.20
2023-02-27T01:32:39.073Z,1.50
2023-02-27T01:35:07.860Z,1.77
2023-02-27T01:37:35.916Z,1.57
2023-02-27T01:40:05.261Z,1.70
2023-02-27T01:42:33.951Z,1.50
2023-02-27T01:45:24.125Z,1.30
2023-02-27T01:47:57.176Z,2.57
2023-02-27T01:50:25.715Z,1.30
2023-02-27T01:53:01.181Z,1.80
2023-02-27T01:55:32.394Z,1.90
2023-02-27T01:58:01.424Z,2.03
2023-02-27T02:00:31.101Z,1.67
2023-02-27T02:03:08.285Z,1.50
2023-02-27T02:05:36.878Z,1.90
2023-02-27T02:08:05.649Z,2.00
2023-02-27T02:10:34.750Z,1.30
2023-02-27T02:13:03.654Z,2.00
2023-02-27T02:15:53.530Z,1.70
2023-02-27T02:18:30.332Z,1.87
2023-02-27T02:21:32.633Z,1.43
2023-02-27T02:24:45.827Z,1.73
2023-02-27T02:27:28.043Z,1.70
2023-02-27T02:30:26.187Z,1.60
2023-02-27T02:33:38.336Z,1.43
2023-02-27T02:36:29.054Z,1.93
2023-02-27T02:39:16.232Z,1.80
2023-02-27T02:41:56.032Z,1.40
2023-02-27T02:44:33.136Z,1.90
2023-02-27T02:47:07.157Z,1.80
2023-02-27T02:49:44.409Z,1.60
2023-02-27T02:52:20.174Z,1.30
2023-02-27T02:54:55.780Z,1.30
2023-02-27T02:57:39.547Z,1.30
2023-02-27T03:00:11.757Z,1.37
2023-02-27T03:02:45.108Z,1.60
2023-02-27T03:05:18.411Z,2.20
2023-02-27T03:07:52.464Z,1.77
2023-02-27T03:10:27.385Z,1.87
2023-02-27T03:13:02.198Z,1.87
2023-02-27T03:15:34.818Z,1.57
2023-02-27T03:18:08.286Z,1.70
2023-02-27T03:20:40.692Z,1.40
2023-02-27T03:23:14.521Z,1.70
2023-02-27T03:25:46.484Z,1.80
2023-02-27T03:28:19.653Z,1.60
2023-02-27T03:30:53.373Z,1.63
2023-02-27T03:33:28.183Z,1.80
2023-02-27T03:36:03.069Z,1.47
2023-02-27T03:38:37.358Z,1.47
2023-02-27T03:41:14.369Z,1.30
2023-02-27T03:43:49.476Z,1.20
2023-02-27T03:46:20.376Z,1.10
2023-02-27T03:48:48.800Z,1.43
2023-02-27T03:51:19.695Z,1.20
2023-02-27T03:53:51.930Z,1.83
2023-02-27T03:56:26.713Z,2.07
2023-02-27T03:58:55.315Z,1.30
2023-02-27T04:01:23.755Z,1.73
2023-02-27T04:03:57.779Z,1.47
2023-02-27T04:06:44.043Z,1.67
2023-02-27T04:09:22.087Z,1.70
2023-02-27T04:12:06.109Z,1.70
2023-02-27T04:14:46.731Z,1.33
2023-02-27T04:17:23.017Z,0.83
2023-02-27T04:20:13.488Z,1.20
2023-02-27T04:22:47.518Z,1.20
2023-02-27T04:25:39.143Z,1.17
2023-02-27T04:28:17.448Z,1.53
2023-02-27T04:31:01.564Z,1.67
2023-02-27T04:33:41.028Z,1.70
2023-02-27T04:36:14.963Z,1.30
2023-02-27T04:38:49.071Z,2.07
2023-02-27T04:41:22.944Z,1.57
2023-02-27T04:43:54.629Z,1.63
2023-02-27T04:46:27.573Z,2.90
2023-02-27T04:49:00.517Z,1.87
2023-02-27T04:51:34.037Z,1.43
2023-02-27T04:54:05.357Z,1.40
2023-02-27T04:56:37.215Z,2.40
2023-02-27T04:59:10.636Z,1.60
2023-02-27T05:01:43.160Z,1.57
2023-02-27T05:04:14.045Z,1.70
2023-02-27T05:06:45.310Z,1.60
2023-02-27T05:09:18.250Z,1.90
2023-02-27T05:11:52.060Z,1.70
2023-02-27T05:14:29.160Z,2.17
2023-02-27T05:17:05.389Z,1.97
2023-02-27T05:19:34.736Z,2.07
2023-02-27T05:22:14.426Z,1.57
2023-02-27T05:24:51.225Z,2.00
2023-02-27T05:27:24.835Z,1.77
2023-02-27T05:29:57.899Z,1.60
2023-02-27T05:32:34.652Z,2.00
2023-02-27T05:35:10.247Z,1.73
2023-02-27T05:37:43.244Z,2.97
2023-02-27T05:40:14.584Z,1.50
2023-02-27T05:42:47.356Z,2.13
2023-02-27T05:45:22.108Z,1.80
2023-02-27T05:47:58.166Z,2.13
2023-02-27T05:50:29.476Z,1.70
2023-02-27T05:53:01.456Z,1.40
2023-02-27T05:55:35.518Z,1.93
2023-02-27T05:58:09.390Z,2.30
2023-02-27T06:00:42.082Z,1.93
2023-02-27T06:03:10.396Z,2.30
2023-02-27T06:05:40.645Z,2.23
2023-02-27T06:08:08.749Z,2.50
2023-02-27T06:10:46.375Z,2.43
2023-02-27T06:13:14.462Z,1.30
2023-02-27T06:15:43.789Z,1.53
2023-02-27T06:18:12.405Z,1.73
2023-02-27T06:20:41.052Z,2.03
2023-02-27T06:23:09.247Z,2.40
2023-02-27T06:25:37.868Z,2.43
2023-02-27T06:28:06.234Z,2.27
2023-02-27T06:30:34.318Z,2.10
2023-02-27T06:33:04.345Z,2.23
2023-02-27T06:35:32.681Z,2.80
2023-02-27T06:38:01.037Z,1.70
2023-02-27T06:40:29.184Z,2.60
2023-02-27T06:42:57.281Z,2.33
2023-02-27T06:45:25.520Z,2.07
2023-02-27T06:47:53.587Z,2.03
2023-02-27T06:50:23.045Z,6.00
2023-02-27T06:52:51.051Z,8.13
2023-02-27T06:55:20.979Z,8.50
2023-02-27T06:57:49.424Z,4.37
2023-02-27T07:00:18.674Z,2.50
2023-02-27T07:02:46.906Z,2.37
2023-02-27T07:05:14.977Z,1.90
2023-02-27T07:07:44.589Z,2.00
2023-02-27T07:10:14.500Z,2.27
2023-02-27T07:12:43.081Z,1.90
2023-02-27T07:15:12.149Z,2.13
2023-02-27T07:17:40.566Z,3.57
2023-02-27T07:20:12.153Z,2.10
2023-02-27T07:22:41.001Z,3.40
2023-02-27T07:25:11.327Z,2.50
2023-02-27T07:27:39.621Z,2.40
2023-02-27T07:30:08.914Z,2.77
2023-02-27T07:32:37.040Z,2.40
2023-02-27T07:35:05.522Z,1.77
2023-02-27T07:37:33.565Z,1.90
2023-02-27T07:40:01.612Z,2.07
2023-02-27T07:42:30.921Z,3.40
2023-02-27T07:44:58.958Z,1.90
2023-02-27T07:47:27.248Z,2.43
2023-02-27T07:49:55.420Z,2.37
2023-02-27T07:52:23.585Z,3.00
2023-02-27T07:54:52.492Z,2.27
2023-02-27T07:57:20.550Z,2.43
2023-02-27T07:59:49.868Z,2.70
2023-02-27T08:02:17.765Z,1.50
2023-02-27T08:04:45.780Z,1.87
2023-02-27T08:07:13.799Z,2.10
2023-02-27T08:09:41.809Z,2.27
2023-02-27T08:12:09.842Z,2.13
2023-02-27T08:14:38.789Z,1.97
2023-02-27T08:17:09.165Z,2.30
2023-02-27T08:19:37.211Z,2.17
2023-02-27T08:22:05.215Z,1.60
2023-02-27T08:24:33.328Z,2.13
2023-02-27T08:27:01.740Z,1.67
2023-02-27T08:29:31.254Z,1.73
2023-02-27T08:31:59.585Z,1.63
2023-02-27T08:34:30.403Z,1.40
2023-02-27T08:36:59.135Z,1.20
2023-02-27T08:39:27.368Z,1.50
2023-02-27T08:41:55.589Z,1.17
2023-02-27T08:44:23.675Z,1.70
2023-02-27T08:46:51.962Z,2.13
2023-02-27T08:49:21.662Z,9.17
2023-02-27T08:51:51.731Z,4.23
2023-02-27T08:54:21.020Z,1.70
2023-02-27T08:56:49.935Z,1.83
2023-02-27T08:59:18.555Z,1.17
2023-02-27T09:01:46.908Z,3.20
2023-02-27T09:04:15.167Z,2.33
2023-02-27T09:06:44.512Z,2.27
2023-02-27T09:09:14.224Z,2.00
2023-02-27T09:11:42.507Z,1.47
2023-02-27T09:14:11.029Z,1.30
2023-02-27T09:16:39.508Z,1.10
2023-02-27T09:19:08.019Z,1.40
2023-02-27T09:21:37.497Z,1.40
2023-02-27T09:24:18.606Z,1.47
2023-02-27T09:26:49.475Z,1.97
2023-02-27T09:29:18.065Z,1.40
2023-02-27T09:31:46.319Z,1.40
2023-02-27T09:34:15.089Z,1.43
2023-02-27T09:36:43.481Z,1.30
2023-02-27T09:39:12.389Z,1.17
2023-02-27T09:41:52.319Z,1.30
2023-02-27T09:44:45.172Z,1.40
2023-02-27T09:47:18.443Z,1.60
2023-02-27T09:50:03.370Z,1.50
2023-02-27T09:52:34.119Z,1.70
2023-02-27T09:55:03.118Z,1.40
2023-02-27T09:57:45.711Z,1.50
2023-02-27T10:00:36.239Z,1.10
2023-02-27T10:03:17.765Z,1.00
2023-02-27T10:05:52.164Z,0.50
2023-02-27T10:08:27.488Z,1.27
2023-02-27T10:11:01.450Z,1.50
2023-02-27T10:13:56.759Z,1.10
2023-02-27T10:16:26.900Z,0.80
2023-02-27T10:18:58.897Z,1.40
2023-02-27T10:21:32.967Z,1.60
2023-02-27T10:24:07.923Z,1.50
2023-02-27T10:26:40.756Z,1.53
2023-02-27T10:29:19.259Z,1.17
2023-02-27T10:31:50.156Z,1.13
2023-02-27T10:34:18.731Z,1.10
2023-02-27T10:36:48.705Z,1.27
2023-02-27T10:39:20.963Z,1.50
2023-02-27T10:41:51.738Z,1.50
2023-02-27T10:44:21.318Z,3.00
2023-02-27T10:46:51.905Z,1.60
2023-02-27T10:49:22.089Z,1.47
2023-02-27T10:52:08.856Z,1.33
2023-02-27T10:54:37.317Z,1.67
2023-02-27T10:57:18.534Z,1.60
2023-02-27T10:59:54.364Z,1.30
2023-02-27T11:02:26.028Z,2.67
2023-02-27T11:04:56.799Z,1.90
2023-02-27T11:07:33.934Z,1.77
2023-02-27T11:10:17.835Z,1.40
2023-02-27T11:13:00.943Z,1.40
2023-02-27T11:15:32.409Z,1.87
2023-02-27T11:18:27.329Z,2.20
2023-02-27T11:21:09.982Z,1.63
2023-02-27T11:23:38.150Z,1.10
2023-02-27T11:26:12.715Z,1.43
2023-02-27T11:28:41.060Z,1.00
2023-02-27T11:31:18.928Z,1.20
2023-02-27T11:33:51.778Z,0.67
2023-02-27T11:36:20.054Z,1.17
2023-02-27T11:38:54.012Z,1.20
2023-02-27T11:41:31.126Z,0.80
2023-02-27T11:44:00.938Z,1.40
2023-02-27T11:46:42.898Z,1.20
2023-02-27T11:49:29.138Z,1.20
2023-02-27T11:52:04.672Z,1.40
2023-02-27T11:54:39.485Z,1.10
2023-02-27T11:57:18.491Z,1.17
2023-02-27T11:59:52.957Z,1.10
2023-02-27T12:02:30.452Z,1.60
2023-02-27T12:05:06.491Z,1.10
2023-02-27T12:07:42.777Z,1.27
2023-02-27T12:10:17.813Z,1.70
2023-02-27T12:12:51.002Z,1.53
2023-02-27T12:15:32.560Z,0.60
2023-02-27T12:18:16.527Z,0.80
2023-02-27T12:20:54.208Z,0.80
2023-02-27T12:23:27.934Z,0.90
2023-02-27T12:26:03.648Z,1.50
2023-02-27T12:28:44.985Z,1.30
2023-02-27T12:31:42.045Z,0.97
2023-02-27T12:34:22.060Z,1.27
2023-02-27T12:36:50.179Z,1.00
2023-02-27T12:39:21.767Z,0.93
2023-02-27T12:42:25.297Z,0.83
2023-02-27T12:45:20.948Z,1.50
2023-02-27T12:47:57.349Z,1.40
2023-02-27T12:50:42.871Z,1.07
2023-02-27T12:53:37.770Z,1.40
2023-02-27T12:56:14.375Z,0.73
2023-02-27T12:58:51.951Z,1.57
2023-02-27T13:01:33.387Z,1.30
2023-02-27T13:04:08.421Z,1.40
2023-02-27T13:06:48.468Z,1.40
2023-02-27T13:09:25.807Z,1.43
2023-02-27T13:12:03.124Z,1.57
2023-02-27T13:14:39.554Z,1.10
2023-02-27T13:17:18.582Z,1.10
2023-02-27T13:19:51.480Z,0.97
2023-02-27T13:22:30.943Z,0.90
2023-02-27T13:25:03.936Z,0.93
2023-02-27T13:27:40.169Z,1.00
2023-02-27T13:30:22.876Z,1.00
2023-02-27T13:32:57.274Z,0.70
2023-02-27T13:35:36.176Z,0.80
2023-02-27T13:38:35.858Z,0.87
2023-02-27T13:41:43.665Z,1.17
2023-02-27T13:44:49.235Z,1.17
2023-02-27T13:47:48.031Z,0.93
2023-02-27T13:50:51.747Z,1.33
2023-02-27T13:53:24.437Z,1.20
2023-02-27T13:55:56.517Z,1.40
2023-02-27T13:58:25.821Z,1.40
2023-02-27T14:01:00.538Z,0.90
2023-02-27T14:03:32.201Z,1.50
2023-02-27T14:06:06.945Z,1.20
2023-02-27T14:08:47.612Z,0.80
2023-02-27T14:11:21.651Z,1.40
2023-02-27T14:14:28.822Z,1.10
2023-02-27T14:17:03.756Z,1.07
2023-02-27T14:19:59.523Z,1.40
2023-02-27T14:22:44.052Z,1.40
2023-02-27T14:25:22.240Z,1.90
2023-02-27T14:27:56.980Z,1.67
2023-02-27T14:30:44.922Z,1.17
2023-02-27T14:33:24.116Z,1.20
2023-02-27T14:36:01.216Z,1.10
2023-02-27T14:38:30.970Z,1.00
2023-02-27T14:41:35.864Z,1.33
2023-02-27T14:44:06.561Z,1.30
2023-02-27T14:46:39.328Z,0.97
2023-02-27T14:49:20.493Z,0.83
2023-02-27T14:51:49.039Z,0.90
2023-02-27T14:54:18.781Z,1.10
2023-02-27T14:56:56.910Z,0.63
2023-02-27T14:59:26.778Z,1.20
2023-02-27T15:01:59.035Z,1.63
2023-02-27T15:04:35.008Z,1.40
2023-02-27T15:07:04.473Z,1.03
2023-02-27T15:09:43.519Z,0.97
2023-02-27T15:12:20.749Z,1.30
2023-02-27T15:14:59.541Z,1.83
2023-02-27T15:17:30.882Z,1.60
2023-02-27T15:20:01.654Z,1.07
2023-02-27T15:22:39.333Z,0.90
2023-02-27T15:28:53.883Z,1.00
2023-02-27T15:31:26.777Z,1.40
2023-02-27T15:33:56.488Z,0.80
2023-02-27T15:36:29.467Z,1.20
2023-02-27T15:39:16.811Z,1.03
2023-02-27T15:41:53.177Z,1.43
2023-02-27T15:47:45.850Z,1.00
2023-02-27T15:50:36.926Z,1.70
2023-02-27T15:53:35.749Z,1.30
2023-02-27T15:56:11.507Z,1.77
2023-02-27T15:58:53.059Z,1.40
2023-02-27T16:01:31.701Z,1.73
2023-02-27T16:04:22.884Z,1.30
2023-02-27T16:07:01.872Z,1.60
2023-02-27T16:09:49.483Z,1.93
2023-02-27T16:12:38.391Z,2.07
2023-02-27T16:15:46.235Z,1.30
2023-02-27T16:18:32.092Z,1.17
2023-02-27T16:21:11.451Z,1.00
2023-02-27T16:23:51.845Z,1.47
2023-02-27T16:26:29.228Z,1.47
2023-02-27T16:29:00.098Z,1.20
2023-02-27T16:31:31.177Z,1.77
2023-02-27T16:34:05.269Z,1.50
2023-02-27T16:36:34.262Z,1.17
2023-02-27T16:39:02.539Z,0.97
2023-02-27T16:41:30.746Z,1.47
2023-02-27T16:43:59.307Z,1.40
2023-02-27T16:46:28.219Z,1.47
2023-02-27T16:49:14.188Z,1.60
2023-02-27T16:51:49.454Z,2.40
2023-02-27T16:54:20.921Z,2.10
2023-02-27T16:56:50.554Z,2.60
2023-02-27T16:59:29.761Z,1.80
2023-02-27T17:01:59.293Z,2.43
2023-02-27T17:04:29.417Z,2.27
2023-02-27T17:07:03.294Z,2.50
2023-02-27T17:09:32.541Z,2.30
2023-02-27T17:12:00.775Z,1.57
2023-02-27T17:14:31.865Z,1.97
2023-02-27T17:17:02.247Z,2.00
2023-02-27T17:19:30.512Z,1.40
2023-02-27T17:22:00.085Z,2.10
2023-02-27T17:24:28.739Z,1.40
2023-02-27T17:26:57.632Z,1.53
2023-02-27T17:29:25.936Z,1.63
2023-02-27T17:31:54.407Z,1.63
2023-02-27T17:34:22.837Z,2.33
2023-02-27T17:36:51.284Z,2.00
2023-02-27T17:39:29.530Z,1.90
2023-02-27T17:42:00.756Z,3.03
2023-02-27T17:44:32.945Z,2.30
2023-02-27T17:47:02.101Z,1.37
2023-02-27T17:49:30.487Z,1.87
2023-02-27T17:52:02.293Z,1.90
2023-02-27T17:54:32.489Z,2.00
2023-02-27T17:57:01.142Z,2.00
2023-02-27T17:59:29.930Z,1.37
2023-02-27T18:01:59.061Z,1.70
2023-02-27T18:04:30.468Z,2.30
2023-02-27T18:06:59.709Z,2.53
2023-02-27T18:09:28.190Z,3.20
2023-02-27T18:11:58.147Z,2.90
2023-02-27T18:14:26.389Z,2.63
2023-02-27T18:16:54.410Z,2.70
2023-02-27T18:19:24.454Z,3.10
2023-02-27T18:21:53.036Z,2.97
2023-02-27T18:24:22.273Z,2.20
2023-02-27T18:26:50.670Z,2.47
2023-02-27T18:29:19.987Z,3.30
2023-02-27T18:31:50.292Z,2.50
2023-02-27T18:34:18.426Z,3.50
2023-02-27T18:36:46.553Z,4.07
2023-02-27T18:39:14.808Z,3.53
2023-02-27T18:41:43.206Z,2.57
2023-02-27T18:44:11.605Z,2.80
2023-02-27T18:46:41.168Z,3.70
2023-02-27T18:49:10.192Z,3.60
2023-02-27T18:51:38.558Z,3.80
2023-02-27T18:54:07.897Z,3.00
2023-02-27T18:56:36.105Z,2.80
2023-02-27T18:59:06.942Z,3.70
2023-02-27T19:01:37.185Z,2.53
2023-02-27T19:04:09.725Z,2.33
2023-02-27T19:06:40.987Z,2.70
2023-02-27T19:09:10.549Z,2.60
2023-02-27T19:11:43.723Z,2.70
2023-02-27T19:14:18.225Z,2.60
2023-02-27T19:16:50.901Z,2.97
2023-02-27T19:19:21.623Z,3.10
2023-02-27T19:21:50.581Z,2.63
2023-02-27T19:24:19.617Z,3.37
2023-02-27T19:26:48.901Z,2.40
2023-02-27T19:29:22.331Z,2.53
2023-02-27T19:31:50.943Z,2.80
2023-02-27T19:34:22.820Z,2.07
2023-02-27T19:36:50.966Z,2.30
2023-02-27T19:39:19.291Z,1.90
2023-02-27T19:41:47.439Z,3.63
2023-02-27T19:44:16.229Z,2.37
2023-02-27T19:46:46.575Z,2.50
2023-02-27T19:49:31.926Z,2.27
2023-02-27T19:52:01.024Z,2.13
2023-02-27T19:54:34.153Z,2.83
2023-02-27T19:57:03.872Z,3.30
2023-02-27T19:59:36.835Z,2.50
2023-02-27T20:02:09.563Z,2.50
2023-02-27T20:04:40.185Z,2.37
2023-02-27T20:07:11.604Z,2.00
2023-02-27T20:09:40.717Z,1.87
2023-02-27T20:12:13.479Z,2.50
2023-02-27T20:14:43.442Z,2.23
2023-02-27T20:17:14.955Z,2.30
2023-02-27T20:19:51.092Z,3.90
2023-02-27T20:22:20.743Z,2.27
2023-02-27T20:24:52.156Z,1.90
2023-02-27T20:27:28.723Z,2.80
2023-02-27T20:30:04.102Z,2.70
2023-02-27T20:32:35.397Z,2.73
2023-02-27T20:35:08.715Z,2.70
2023-02-27T20:37:43.071Z,2.60
2023-02-27T20:40:16.209Z,3.33
2023-02-27T20:42:52.033Z,1.63
2023-02-27T20:45:23.841Z,2.97
2023-02-27T20:47:53.696Z,2.30
2023-02-27T20:50:25.457Z,2.53
2023-02-27T20:53:00.587Z,3.00
2023-02-27T20:55:29.969Z,2.60
2023-02-27T20:57:58.426Z,2.23
2023-02-27T21:00:37.936Z,2.30
2023-02-27T21:03:12.156Z,1.80
2023-02-27T21:05:56.765Z,1.90
2023-02-27T21:08:29.145Z,1.93
2023-02-27T21:11:06.008Z,2.10
2023-02-27T21:13:41.754Z,2.13
2023-02-27T21:16:20.432Z,2.70
2023-02-27T21:18:52.603Z,3.13
2023-02-27T21:21:28.418Z,2.10
2023-02-27T21:24:01.246Z,2.20
2023-02-27T21:26:35.538Z,1.90
2023-02-27T21:29:07.265Z,1.90
2023-02-27T21:31:41.144Z,2.23
2023-02-27T21:34:19.990Z,2.33
2023-02-27T21:36:53.197Z,1.80
2023-02-27T21:39:26.784Z,2.33
2023-02-27T21:42:00.680Z,2.30
2023-02-27T21:44:45.748Z,2.30
2023-02-27T21:47:15.006Z,1.93
2023-02-27T21:49:52.524Z,2.03
2023-02-27T21:52:27.277Z,2.53
2023-02-27T21:54:56.823Z,1.53
2023-02-27T21:57:31.310Z,2.30
2023-02-27T22:00:04.610Z,1.83
2023-02-27T22:02:39.240Z,2.70
2023-02-27T22:05:08.928Z,2.43
2023-02-27T22:07:39.177Z,2.40
2023-02-27T22:10:09.543Z,2.40
2023-02-27T22:12:41.146Z,2.60
2023-02-27T22:15:11.190Z,2.33
2023-02-27T22:17:44.982Z,2.10
2023-02-27T22:20:14.960Z,2.10
2023-02-27T22:22:45.402Z,2.00
2023-02-27T22:25:17.235Z,2.30
2023-02-27T22:27:46.076Z,2.10
2023-02-27T22:30:15.380Z,2.20
2023-02-27T22:32:45.778Z,2.30
2023-02-27T22:35:14.343Z,2.80
2023-02-27T22:37:44.280Z,2.97
2023-02-27T22:40:13.992Z,2.23
2023-02-27T22:42:49.223Z,2.30
2023-02-27T22:45:20.920Z,2.23
2023-02-27T22:47:49.592Z,2.60
2023-02-27T22:50:22.975Z,2.03
2023-02-27T22:52:56.099Z,2.30
2023-02-27T22:55:24.458Z,2.40
2023-02-27T22:57:52.790Z,1.90
2023-02-27T23:00:21.801Z,1.73
2023-02-27T23:02:50.112Z,2.77
2023-02-27T23:05:18.665Z,2.43
2023-02-27T23:07:47.353Z,2.13
2023-02-27T23:10:18.991Z,3.00
2023-02-27T23:12:47.359Z,1.70
2023-02-27T23:15:15.835Z,2.30
2023-02-27T23:17:57.766Z,2.70
2023-02-27T23:20:26.734Z,2.43
2023-02-27T23:22:55.121Z,2.30
2023-02-27T23:25:24.324Z,2.60
2023-02-27T23:27:52.284Z,2.80
2023-02-27T23:30:21.783Z,1.40
2023-02-27T23:32:55.553Z,2.63
2023-02-27T23:35:30.824Z,2.03
2023-02-27T23:38:01.739Z,1.93
2023-02-27T23:40:31.373Z,2.20
2023-02-27T23:42:59.458Z,2.27
2023-02-27T23:45:27.765Z,1.77
2023-02-27T23:47:57.845Z,2.27
2023-02-27T23:50:27.627Z,2.23
2023-02-27T23:52:57.656Z,2.00
2023-02-27T23:55:26.445Z,2.27
2023-02-27T23:57:58.385Z,2.40
